Time;durP1;ratioP1;P1;durP2;ratioP2;P2;SDS_P1;SDS_P2;PMS_P1;PMS_P2;Temp;Humidity;BMP_temperature;BMP_pressure;BME280_temperature;BME280_humidity;BME280_pressure;Samples;Min_cycle;Max_cycle;Signal;HPM_P1;HPM_P2
2021/03/05 00:02:16;;;;;;;60.97;31.52;;;8.40;63.50;;;;;;5039961;28;20036;-81
2021/03/05 00:04:42;;;;;;;62.05;31.55;;;8.40;63.30;;;;;;5043584;28;20024;-81
2021/03/05 00:07:07;;;;;;;59.95;32.17;;;8.40;63.30;;;;;;5039669;28;20023;-81
2021/03/05 00:09:33;;;;;;;62.40;33.90;;;8.50;63.30;;;;;;5042305;28;20103;-80
2021/03/05 00:11:59;;;;;;;62.90;33.90;;;8.50;63.40;;;;;;5041897;28;20100;-81
2021/03/05 00:14:25;;;;;;;65.97;32.72;;;8.60;63.50;;;;;;5042818;28;20018;-81
2021/03/05 00:16:50;;;;;;;60.63;32.20;;;8.70;63.40;;;;;;5044235;28;20017;-81
2021/03/05 00:19:16;;;;;;;59.60;32.30;;;8.70;63.20;;;;;;5044300;28;20025;-82
2021/03/05 00:21:41;;;;;;;60.35;32.83;;;8.80;63.70;;;;;;5041133;28;20026;-81
2021/03/05 00:24:08;;;;;;;64.93;32.30;;;8.90;62.90;;;;;;5040205;28;20470;-82
2021/03/05 00:26:33;;;;;;;67.57;33.13;;;8.90;62.60;;;;;;5042694;28;20049;-82
2021/03/05 00:28:59;;;;;;;66.10;33.67;;;8.90;62.60;;;;;;5040893;28;20503;-82
2021/03/05 00:31:25;;;;;;;63.92;34.00;;;8.80;62.70;;;;;;5050968;28;20100;-80
2021/03/05 00:33:51;;;;;;;64.82;34.55;;;8.80;62.50;;;;;;5041077;28;20448;-81
2021/03/05 00:36:16;;;;;;;64.60;34.40;;;8.90;62.50;;;;;;5041739;28;20107;-82
2021/03/05 00:38:42;;;;;;;67.10;33.70;;;8.90;62.50;;;;;;5043497;28;20021;-81
2021/03/05 00:41:08;;;;;;;70.00;34.53;;;8.90;62.50;;;;;;5039899;28;20031;-82
2021/03/05 00:43:33;;;;;;;63.78;33.80;;;8.90;62.50;;;;;;5041478;28;20024;-81
2021/03/05 00:45:59;;;;;;;61.55;33.83;;;8.90;62.60;;;;;;5041248;28;20444;-81
2021/03/05 00:48:25;;;;;;;66.13;34.85;;;8.90;62.60;;;;;;5041574;28;20108;-82
2021/03/05 00:50:50;;;;;;;67.07;35.97;;;8.90;62.40;;;;;;5043746;28;20414;-82
2021/03/05 00:53:16;;;;;;;68.22;33.60;;;8.90;62.40;;;;;;5041861;28;20039;-82
2021/03/05 00:55:42;;;;;;;59.25;32.85;;;8.90;62.40;;;;;;5042841;28;20021;-82
2021/03/05 00:58:08;;;;;;;64.70;34.95;;;8.90;62.50;;;;;;5040956;28;20032;-81
2021/03/05 01:00:34;;;;;;;68.32;34.50;;;9.00;62.40;;;;;;5041744;28;20032;-81
2021/03/05 01:02:59;;;;;;;65.72;35.03;;;9.00;62.50;;;;;;5043004;28;20036;-82
2021/03/05 01:05:26;;;;;;;64.10;33.70;;;9.00;62.40;;;;;;5041258;28;20047;-82
2021/03/05 01:07:51;;;;;;;62.20;34.88;;;9.00;62.40;;;;;;5040776;28;20018;-80
2021/03/05 01:10:18;;;;;;;68.32;33.67;;;9.00;62.40;;;;;;5037511;28;20028;-82
2021/03/05 01:12:43;;;;;;;58.78;33.10;;;8.90;62.30;;;;;;5042622;28;20484;-81
2021/03/05 01:15:10;;;;;;;64.57;33.08;;;8.90;62.30;;;;;;5042991;28;20097;-81
2021/03/05 01:17:36;;;;;;;63.63;33.08;;;8.90;62.30;;;;;;5045668;28;20067;-81
2021/03/05 01:20:13;;;;;;;59.38;32.20;;;8.90;62.40;;;;;;5047152;28;20013;-81
2021/03/05 01:22:38;;;;;;;66.13;34.35;;;8.90;62.30;;;;;;5043419;28;20172;-82
2021/03/05 01:25:08;;;;;;;61.15;34.30;;;8.80;62.30;;;;;;5044851;28;20490;-81
2021/03/05 01:27:34;;;;;;;61.78;33.42;;;8.80;62.30;;;;;;5054813;28;20017;-81
2021/03/05 01:30:05;;;;;;;64.93;32.30;;;8.80;62.30;;;;;;5047789;28;20013;-83
2021/03/05 01:32:30;;;;;;;58.25;32.25;;;8.80;62.50;;;;;;5045870;28;20052;-82
2021/03/05 01:34:56;;;;;;;69.97;32.78;;;8.70;62.40;;;;;;5045283;28;20572;-82
2021/03/05 01:37:22;;;;;;;68.10;31.77;;;8.70;62.40;;;;;;5046903;28;20013;-81
2021/03/05 01:39:47;;;;;;;66.43;33.22;;;8.70;62.40;;;;;;5045138;28;20120;-83
2021/03/05 01:42:13;;;;;;;65.90;32.78;;;8.60;62.30;;;;;;5047110;28;20036;-81
2021/03/05 01:44:39;;;;;;;68.45;32.05;;;8.60;62.40;;;;;;5044847;28;20034;-82
2021/03/05 01:47:06;;;;;;;69.88;34.58;;;8.60;62.50;;;;;;5046226;28;20021;-82
2021/03/05 01:49:32;;;;;;;70.28;33.50;;;8.60;62.40;;;;;;5045196;28;20490;-81
2021/03/05 01:51:58;;;;;;;70.00;33.35;;;8.60;62.50;;;;;;5044712;28;20029;-83
2021/03/05 01:54:23;;;;;;;67.28;32.40;;;8.60;62.40;;;;;;5046477;28;20111;-82
2021/03/05 01:56:52;;;;;;;69.00;31.35;;;8.50;62.40;;;;;;5043536;28;20370;-82
2021/03/05 01:59:30;;;;;;;67.90;33.63;;;8.60;62.50;;;;;;5046099;28;20057;-83
2021/03/05 02:02:03;;;;;;;64.88;31.40;;;8.50;62.40;;;;;;5046701;28;20029;-82
2021/03/05 02:04:29;;;;;;;73.72;34.50;;;8.60;62.50;;;;;;5044817;28;20017;-82
2021/03/05 02:06:55;;;;;;;72.95;31.95;;;8.60;62.40;;;;;;5040879;28;20112;-83
2021/03/05 02:09:20;;;;;;;74.22;33.42;;;8.60;62.50;;;;;;5046363;28;20050;-81
2021/03/05 02:11:46;;;;;;;68.90;32.55;;;8.60;62.30;;;;;;5044342;28;20981;-80
2021/03/05 02:14:12;;;;;;;68.95;33.40;;;8.60;62.20;;;;;;5045400;28;20020;-81
2021/03/05 02:17:06;;;;;;;79.72;33.58;;;8.70;62.20;;;;;;5046083;28;20045;-82
2021/03/05 02:19:48;;;;;;;73.10;31.35;;;8.70;62.00;;;;;;5043554;28;20023;-81
2021/03/05 02:22:51;;;;;;;73.13;32.00;;;8.70;61.90;;;;;;5045121;28;20112;-81
2021/03/05 02:25:42;;;;;;;67.25;32.03;;;8.60;61.70;;;;;;5041843;28;20049;-82
2021/03/05 02:28:17;;;;;;;72.50;31.55;;;8.60;61.70;;;;;;5046419;28;20033;-81
2021/03/05 02:30:58;;;;;;;;;;;8.60;61.70;;;;;;5046518;28;20366;-81
2021/03/05 02:33:47;;;;;;;77.72;31.63;;;8.60;61.60;;;;;;5043579;28;20401;-81
2021/03/05 02:36:19;;;;;;;84.00;33.25;;;8.60;61.50;;;;;;5046793;28;20087;-82
2021/03/05 02:38:56;;;;;;;77.50;34.25;;;8.60;61.60;;;;;;5043239;28;20013;-82
2021/03/05 02:41:23;;;;;;;74.10;33.05;;;8.50;61.60;;;;;;5046322;28;20009;-82
2021/03/05 02:43:50;;;;;;;68.30;30.88;;;8.60;61.70;;;;;;5044455;28;20017;-82
2021/03/05 02:46:16;;;;;;;82.22;34.00;;;8.60;61.60;;;;;;5052410;28;20419;-82
2021/03/05 02:48:45;;;;;;;76.07;32.17;;;8.60;61.60;;;;;;5046024;28;20024;-82
2021/03/05 02:51:13;;;;;;;73.30;32.10;;;8.60;61.60;;;;;;5043920;28;20018;-82
2021/03/05 02:53:42;;;;;;;73.15;30.90;;;8.70;61.50;;;;;;5046124;28;20017;-82
2021/03/05 02:56:14;;;;;;;73.25;31.70;;;8.70;61.30;;;;;;5042986;28;20677;-84
2021/03/05 02:58:47;;;;;;;66.32;29.52;;;8.70;61.20;;;;;;5041934;28;20437;-82
2021/03/05 03:01:14;;;;;;;68.35;30.83;;;8.70;61.10;;;;;;5041379;28;20033;-81
2021/03/05 03:03:41;;;;;;;64.80;30.00;;;8.70;60.90;;;;;;5043192;28;20032;-82
2021/03/05 03:06:09;;;;;;;66.85;29.20;;;8.70;60.80;;;;;;5043429;28;20030;-81
2021/03/05 03:08:36;;;;;;;61.67;27.50;;;8.70;60.70;;;;;;5043952;28;20035;-82
2021/03/05 03:11:04;;;;;;;65.75;28.13;;;8.70;60.60;;;;;;5044916;28;20029;-82
2021/03/05 03:13:33;;;;;;;67.78;28.95;;;8.60;60.40;;;;;;5042277;28;20044;-81
2021/03/05 03:15:59;;;;;;;63.40;28.50;;;8.60;60.30;;;;;;5040926;28;20022;-82
2021/03/05 03:18:26;;;;;;;65.47;30.08;;;8.60;60.30;;;;;;5044964;28;20142;-82
2021/03/05 03:21:00;;;;;;;56.88;27.40;;;8.50;60.20;;;;;;5043817;28;20048;-81
2021/03/05 03:23:27;;;;;;;63.38;27.58;;;8.50;60.20;;;;;;5042336;28;20489;-82
2021/03/05 03:25:52;;;;;;;63.72;28.42;;;8.50;60.20;;;;;;5044116;28;20021;-82
2021/03/05 03:28:19;;;;;;;57.55;27.02;;;8.50;60.30;;;;;;5044316;28;20056;-83
2021/03/05 03:30:45;;;;;;;58.50;27.05;;;8.50;60.20;;;;;;5042461;28;20025;-82
2021/03/05 03:33:11;;;;;;;62.33;28.58;;;8.50;60.20;;;;;;5044023;28;20104;-82
2021/03/05 03:35:37;;;;;;;62.35;27.23;;;8.50;60.10;;;;;;5044722;28;20013;-82
2021/03/05 03:38:07;;;;;;;55.97;27.80;;;8.50;60.10;;;;;;5045343;28;20048;-82
2021/03/05 03:40:35;;;;;;;57.90;26.73;;;8.50;60.10;;;;;;5043942;28;20037;-82
2021/03/05 03:43:01;;;;;;;65.07;28.15;;;8.50;60.00;;;;;;5044221;28;20120;-82
2021/03/05 03:45:30;;;;;;;59.45;26.70;;;8.40;60.60;;;;;;5039084;28;20510;-82
2021/03/05 03:47:57;;;;;;;57.15;26.15;;;8.40;60.00;;;;;;5043119;28;20016;-87
2021/03/05 03:50:36;;;;;;;61.40;27.33;;;8.40;59.90;;;;;;5042189;28;20109;-82
2021/03/05 03:53:18;;;;;;;60.55;27.55;;;8.40;59.80;;;;;;5042062;28;20060;-83
2021/03/05 03:55:44;;;;;;;60.53;26.90;;;8.40;59.80;;;;;;5045158;28;20117;-82
2021/03/05 03:58:10;;;;;;;58.47;25.60;;;8.50;59.80;;;;;;5042332;28;20034;-81
2021/03/05 04:00:37;;;;;;;58.08;25.85;;;8.40;59.70;;;;;;5042599;28;20451;-81
2021/03/05 04:03:05;;;;;;;59.50;28.08;;;8.40;59.70;;;;;;5041192;28;20045;-83
2021/03/05 04:05:35;;;;;;;61.78;27.10;;;8.40;59.70;;;;;;5033066;28;20104;-82
2021/03/05 04:08:01;;;;;;;60.78;26.98;;;8.40;59.70;;;;;;5044069;28;20009;-81
2021/03/05 04:10:28;;;;;;;54.70;24.13;;;8.40;59.60;;;;;;5042367;28;20023;-81
2021/03/05 04:12:55;;;;;;;57.65;24.95;;;8.40;59.50;;;;;;5042909;28;20119;-82
2021/03/05 04:15:22;;;;;;;59.10;25.15;;;8.30;59.40;;;;;;5039928;28;20116;-82
2021/03/05 04:17:48;;;;;;;55.05;25.42;;;8.30;59.40;;;;;;5043816;28;20063;-82
2021/03/05 04:20:15;;;;;;;59.53;25.92;;;8.30;59.40;;;;;;5042360;28;20404;-82
2021/03/05 04:22:43;;;;;;;50.75;25.17;;;8.30;59.30;;;;;;5044388;28;20025;-81
2021/03/05 04:25:11;;;;;;;50.95;22.88;;;8.30;59.20;;;;;;5041711;28;20029;-82
2021/03/05 04:27:37;;;;;;;57.17;24.67;;;8.30;59.20;;;;;;5040809;28;20474;-81
2021/03/05 04:30:03;;;;;;;58.67;24.75;;;8.30;59.20;;;;;;5037887;28;20056;-81
2021/03/05 04:32:29;;;;;;;56.67;26.05;;;8.30;59.20;;;;;;5041859;28;20029;-82
2021/03/05 04:34:55;;;;;;;56.20;25.65;;;8.30;59.10;;;;;;5037082;28;20028;-81
2021/03/05 04:37:21;;;;;;;59.95;25.35;;;8.20;59.10;;;;;;5041497;28;20359;-81
2021/03/05 04:39:46;;;;;;;55.97;25.73;;;8.20;59.10;;;;;;5042670;28;20037;-81
2021/03/05 04:42:12;;;;;;;58.05;25.23;;;8.20;59.10;;;;;;5044041;28;20102;-82
2021/03/05 04:44:38;;;;;;;51.28;25.10;;;8.20;59.20;;;;;;5041680;28;20025;-82
2021/03/05 04:47:03;;;;;;;57.35;25.50;;;8.20;59.30;;;;;;5042881;28;20099;-83
2021/03/05 04:49:29;;;;;;;64.00;26.80;;;8.20;59.30;;;;;;5039698;28;20017;-84
2021/03/05 04:51:55;;;;;;;56.60;25.15;;;8.20;59.30;;;;;;5036642;28;20052;-82
2021/03/05 04:54:21;;;;;;;67.05;29.85;;;8.20;59.40;;;;;;5041518;28;20060;-82
2021/03/05 04:56:47;;;;;;;62.67;28.33;;;8.20;59.50;;;;;;5042592;28;20038;-82
2021/03/05 04:59:12;;;;;;;65.50;27.88;;;8.20;59.60;;;;;;5041731;28;20471;-83
2021/03/05 05:01:38;;;;;;;72.88;31.27;;;8.20;59.80;;;;;;5043719;28;20033;-82
2021/03/05 05:04:04;;;;;;;70.45;30.20;;;8.20;60.00;;;;;;5040801;28;20028;-82
2021/03/05 05:06:30;;;;;;;74.22;31.35;;;8.10;60.10;;;;;;5041639;28;20452;-82
2021/03/05 05:08:55;;;;;;;65.28;29.60;;;8.10;60.20;;;;;;5036426;28;20052;-81
2021/03/05 05:11:21;;;;;;;71.07;30.98;;;8.10;60.20;;;;;;5043727;28;20025;-81
2021/03/05 05:13:47;;;;;;;68.65;30.30;;;8.10;60.20;;;;;;5040717;28;20052;-82
2021/03/05 05:16:12;;;;;;;69.13;31.35;;;8.10;60.30;;;;;;5039660;28;20025;-82
2021/03/05 05:18:38;;;;;;;61.92;27.52;;;8.10;60.30;;;;;;5034539;28;20053;-82
2021/03/05 05:21:04;;;;;;;57.78;27.15;;;8.10;60.40;;;;;;5043073;28;20021;-83
2021/03/05 05:23:29;;;;;;;62.00;28.60;;;8.10;60.40;;;;;;5040994;28;20098;-83
2021/03/05 05:25:55;;;;;;;66.63;28.73;;;8.10;60.40;;;;;;5043932;28;20021;-81
2021/03/05 05:28:21;;;;;;;68.38;27.95;;;8.20;60.50;;;;;;5038452;28;20024;-82
2021/03/05 05:30:46;;;;;;;68.10;28.58;;;8.10;60.50;;;;;;5043720;28;20017;-84
2021/03/05 05:33:12;;;;;;;61.10;27.88;;;8.20;60.60;;;;;;5038850;28;20398;-82
2021/03/05 05:35:38;;;;;;;61.97;28.67;;;8.20;60.50;;;;;;5037285;28;20024;-82
2021/03/05 05:38:04;;;;;;;62.03;29.65;;;8.20;60.50;;;;;;5035224;28;20075;-82
2021/03/05 05:40:29;;;;;;;72.05;28.48;;;8.20;60.60;;;;;;5042854;28;20029;-82
2021/03/05 05:42:55;;;;;;;70.20;30.90;;;8.20;60.60;;;;;;5053021;28;20091;-83
2021/03/05 05:45:21;;;;;;;66.28;30.60;;;8.20;60.60;;;;;;5053090;28;20021;-81
2021/03/05 05:47:47;;;;;;;62.83;29.00;;;8.30;60.70;;;;;;5053440;28;20029;-83
2021/03/05 05:50:13;;;;;;;62.25;27.88;;;8.30;60.60;;;;;;5045269;28;20022;-83
2021/03/05 05:52:41;;;;;;;66.18;29.17;;;8.30;60.40;;;;;;5041657;28;20100;-82
2021/03/05 05:55:09;;;;;;;70.85;30.15;;;8.30;60.30;;;;;;5044840;28;20445;-81
2021/03/05 05:57:37;;;;;;;58.03;27.35;;;8.30;60.30;;;;;;5040556;28;20021;-82
2021/03/05 06:00:06;;;;;;;62.50;25.92;;;8.30;60.30;;;;;;5046611;28;20029;-82
2021/03/05 06:02:34;;;;;;;64.35;27.15;;;8.30;60.20;;;;;;5052067;28;20037;-80
2021/03/05 06:04:59;;;;;;;64.63;28.25;;;8.30;60.10;;;;;;5052569;28;20079;-83
2021/03/05 06:07:25;;;;;;;58.22;26.15;;;8.30;60.00;;;;;;5052815;28;20029;-83
2021/03/05 06:09:52;;;;;;;59.25;27.45;;;8.30;60.00;;;;;;5055075;28;20028;-81
2021/03/05 06:12:19;;;;;;;60.88;27.40;;;8.30;60.10;;;;;;5057482;28;20080;-82
2021/03/05 06:14:46;;;;;;;58.47;26.98;;;8.30;60.10;;;;;;5061074;28;20078;-82
2021/03/05 06:17:12;;;;;;;60.40;26.17;;;8.30;60.10;;;;;;5057591;28;20028;-83
2021/03/05 06:19:39;;;;;;;55.15;26.20;;;8.20;60.10;;;;;;5056623;28;20366;-82
2021/03/05 06:22:18;;;;;;;57.25;27.17;;;8.20;60.10;;;;;;5056173;28;20029;-82
2021/03/05 06:24:44;;;;;;;61.03;26.58;;;8.20;60.20;;;;;;5056365;28;20096;-82
2021/03/05 06:27:10;;;;;;;53.55;26.00;;;8.30;60.20;;;;;;5056252;28;20088;-82
2021/03/05 06:29:49;;;;;;;58.55;26.63;;;8.30;60.30;;;;;;5055010;28;20047;-82
2021/03/05 06:32:17;;;;;;;55.92;25.67;;;8.40;60.20;;;;;;5055180;28;20087;-81
2021/03/05 06:34:53;;;;;;;61.55;27.88;;;8.50;60.30;;;;;;5055794;28;20020;-82
2021/03/05 06:37:21;;;;;;;64.57;28.05;;;8.60;60.20;;;;;;5055836;28;20036;-81
2021/03/05 06:40:06;;;;;;;62.90;26.75;;;8.60;59.90;;;;;;5055829;28;20369;-84
2021/03/05 06:42:49;;;;;;;61.22;27.80;;;8.80;59.80;;;;;;5056030;28;20384;-83
2021/03/05 06:45:16;;;;;;;55.83;26.02;;;8.90;59.60;;;;;;5056010;28;20122;-81
2021/03/05 06:48:00;;;;;;;59.90;28.58;;;9.00;59.50;;;;;;5055908;28;20028;-81
2021/03/05 06:50:25;;;;;;;64.35;27.20;;;9.10;59.30;;;;;;5054488;28;20025;-81
2021/03/05 06:52:51;;;;;;;62.03;26.98;;;9.20;59.20;;;;;;5055576;28;20134;-81
2021/03/05 06:55:17;;;;;;;60.90;27.40;;;9.20;59.00;;;;;;5055820;28;20413;-81
2021/03/05 06:57:43;;;;;;;70.18;28.15;;;9.30;58.80;;;;;;5055331;28;20033;-82
2021/03/05 07:00:19;;;;;;;61.83;27.90;;;9.40;58.50;;;;;;5055095;28;20021;-82
2021/03/05 07:02:45;;;;;;;61.13;28.77;;;9.50;58.20;;;;;;5055576;28;20159;-82
2021/03/05 07:05:11;;;;;;;60.97;26.85;;;9.60;58.10;;;;;;5055749;28;20028;-81
2021/03/05 07:07:45;;;;;;;56.22;25.48;;;9.60;57.90;;;;;;5055546;28;20029;-82
2021/03/05 07:10:15;;;;;;;53.55;23.42;;;9.70;57.60;;;;;;5055305;28;20017;-82
2021/03/05 07:13:02;;;;;;;56.72;24.77;;;9.80;57.40;;;;;;5055384;28;20124;-82
2021/03/05 07:15:27;;;;;;;56.03;26.17;;;9.80;57.00;;;;;;5055071;28;20017;-83
2021/03/05 07:17:53;;;;;;;51.78;25.25;;;9.80;57.00;;;;;;5053820;28;20124;-81
2021/03/05 07:20:19;;;;;;;59.00;25.33;;;9.80;56.90;;;;;;5055219;28;20025;-82
2021/03/05 07:22:48;;;;;;;50.38;23.33;;;9.80;56.80;;;;;;5054662;28;20032;-81
2021/03/05 07:25:17;;;;;;;50.30;23.77;;;9.80;56.60;;;;;;5054747;28;20021;-82
2021/03/05 07:27:45;;;;;;;52.92;23.95;;;9.80;56.50;;;;;;5053677;28;20033;-80
2021/03/05 07:30:16;;;;;;;52.03;22.88;;;9.80;56.50;;;;;;5054592;28;20324;-82
2021/03/05 07:32:49;;;;;;;52.28;23.73;;;9.70;56.30;;;;;;5053533;28;20110;-82
2021/03/05 07:35:32;;;;;;;44.78;21.60;;;9.70;56.20;;;;;;5053513;28;20024;-82
2021/03/05 07:38:00;;;;;;;49.63;22.33;;;9.70;56.00;;;;;;5053248;28;20454;-83
2021/03/05 07:40:27;;;;;;;50.15;22.08;;;9.60;55.90;;;;;;5054843;28;20358;-81
2021/03/05 07:42:55;;;;;;;43.55;21.90;;;9.50;56.00;;;;;;5055262;28;20029;-82
2021/03/05 07:45:21;;;;;;;46.15;22.25;;;9.40;56.10;;;;;;5055781;28;20363;-83
2021/03/05 07:47:50;;;;;;;47.45;21.23;;;9.30;56.10;;;;;;5054049;28;20033;-82
2021/03/05 07:50:20;;;;;;;50.80;22.13;;;9.20;56.00;;;;;;5054836;28;20409;-83
2021/03/05 07:52:48;;;;;;;49.85;23.80;;;9.20;56.10;;;;;;5054698;28;20120;-82
2021/03/05 07:55:14;;;;;;;46.05;22.05;;;9.10;56.20;;;;;;5043955;28;20466;-82
2021/03/05 07:57:46;;;;;;;49.03;22.08;;;9.00;56.30;;;;;;5044014;28;20037;-83
2021/03/05 08:00:16;;;;;;;47.70;22.17;;;9.00;56.40;;;;;;5042830;28;20021;-84
2021/03/05 08:02:53;;;;;;;50.25;21.63;;;8.90;56.60;;;;;;5042684;28;20033;-83
2021/03/05 08:05:38;;;;;;;48.60;21.05;;;8.90;56.60;;;;;;5045029;28;20104;-83
2021/03/05 08:08:13;;;;;;;47.80;21.85;;;9.00;56.60;;;;;;5047622;28;20105;-83
2021/03/05 08:10:43;;;;;;;;;;;9.00;56.60;;;;;;5042189;28;20028;-83
2021/03/05 08:13:47;;;;;;;52.53;21.77;;;9.00;56.70;;;;;;5033172;28;19920;-83
2021/03/05 08:16:25;;;;;;;46.88;21.45;;;9.10;56.40;;;;;;5032839;28;20051;-82
2021/03/05 08:18:52;;;;;;;42.67;20.13;;;9.10;56.20;;;;;;5042251;28;20018;-84
2021/03/05 08:21:18;;;;;;;41.60;20.10;;;9.20;56.20;;;;;;5037761;28;20100;-83
2021/03/05 08:24:20;;;;;;;41.38;19.08;;;9.20;56.80;;;;;;5041311;28;20427;-83
2021/03/05 08:27:23;;;;;;;51.45;20.80;;;9.20;56.10;;;;;;5044100;28;20101;-83
2021/03/05 08:29:57;;;;;;;41.83;19.60;;;9.20;56.00;;;;;;5046898;28;20108;-83
2021/03/05 08:32:35;;;;;;;47.22;18.70;;;9.30;55.90;;;;;;5043945;28;20039;-82
2021/03/05 08:35:04;;;;;;;40.65;18.75;;;9.40;55.80;;;;;;5043210;28;20029;-83
2021/03/05 08:37:31;;;;;;;44.42;20.23;;;9.50;55.70;;;;;;5046113;28;20414;-82
2021/03/05 08:40:21;;;;;;;45.38;20.65;;;9.50;55.50;;;;;;5044080;28;20017;-83
2021/03/05 08:42:55;;;;;;;41.97;20.40;;;9.60;55.20;;;;;;5041236;28;20044;-82
2021/03/05 08:45:22;;;;;;;43.88;20.27;;;9.70;55.00;;;;;;5040644;28;20099;-84
2021/03/05 08:47:49;;;;;;;45.10;22.00;;;9.70;54.90;;;;;;5041795;28;20022;-82
2021/03/05 08:50:20;;;;;;;45.28;21.63;;;9.80;54.70;;;;;;5041403;28;20075;-82
2021/03/05 08:52:48;;;;;;;44.75;20.67;;;9.70;54.70;;;;;;5041189;28;20025;-83
2021/03/05 08:55:15;;;;;;;48.60;21.25;;;9.80;54.60;;;;;;5042346;28;20056;-82
2021/03/05 08:57:42;;;;;;;46.60;20.85;;;9.80;54.60;;;;;;5033461;28;20033;-82
2021/03/05 09:00:12;;;;;;;39.80;20.17;;;9.80;54.60;;;;;;5033526;28;20439;-83
2021/03/05 09:02:39;;;;;;;40.67;19.83;;;9.80;54.50;;;;;;5033362;28;20036;-83
2021/03/05 09:05:05;;;;;;;43.88;20.77;;;9.80;54.40;;;;;;5033371;28;20018;-82
2021/03/05 09:07:31;;;;;;;39.47;19.80;;;9.80;54.40;;;;;;5032260;28;20388;-82
2021/03/05 09:09:58;;;;;;;39.33;18.50;;;9.80;54.40;;;;;;5033383;28;20022;-81
2021/03/05 09:12:25;;;;;;;43.35;20.23;;;9.80;54.30;;;;;;5033242;28;20046;-82
2021/03/05 09:15:04;;;;;;;44.15;20.40;;;9.90;54.20;;;;;;5033488;28;20018;-82
2021/03/05 09:17:29;;;;;;;41.58;21.02;;;9.90;54.00;;;;;;5033607;28;20017;-82
2021/03/05 09:19:55;;;;;;;41.38;18.98;;;10.00;54.10;;;;;;5033295;28;20435;-83
2021/03/05 09:22:27;;;;;;;40.13;19.98;;;10.00;53.90;;;;;;5040796;28;20048;-81
2021/03/05 09:25:09;;;;;;;39.22;18.42;;;10.00;53.80;;;;;;5051579;28;20025;-82
2021/03/05 09:27:40;;;;;;;43.90;20.27;;;10.00;53.60;;;;;;5053317;28;20060;-82
2021/03/05 09:30:20;;;;;;;43.78;20.15;;;10.00;53.60;;;;;;5051874;28;20120;-82
2021/03/05 09:32:59;;;;;;;50.13;22.10;;;10.00;53.40;;;;;;5052807;28;20482;-82
2021/03/05 09:35:27;;;;;;;50.83;22.52;;;9.90;53.40;;;;;;5052590;28;20388;-82
2021/03/05 09:37:54;;;;;;;41.85;20.20;;;9.90;53.50;;;;;;5052757;28;20029;-83
2021/03/05 09:40:21;;;;;;;45.08;20.98;;;10.00;53.60;;;;;;5050997;28;20021;-81
2021/03/05 09:42:58;;;;;;;46.30;21.73;;;10.00;53.60;;;;;;5052972;28;20029;-82
2021/03/05 09:45:42;;;;;;;44.92;21.70;;;10.00;53.50;;;;;;5055278;28;20374;-82
2021/03/05 09:48:30;;;;;;;41.55;21.33;;;10.10;53.50;;;;;;5056732;28;20367;-82
2021/03/05 09:51:03;;;;;;;43.67;21.58;;;10.30;53.50;;;;;;5057175;28;20025;-82
2021/03/05 09:53:34;;;;;;;44.83;20.35;;;10.40;53.30;;;;;;5055995;28;20036;-82
2021/03/05 09:56:05;;;;;;;41.22;20.52;;;10.50;53.00;;;;;;5055867;28;20028;-83
2021/03/05 09:58:31;;;;;;;44.45;20.38;;;10.60;52.90;;;;;;5056621;28;20029;-81
2021/03/05 10:00:57;;;;;;;46.03;21.80;;;10.70;52.80;;;;;;5056420;28;20039;-81
2021/03/05 10:03:23;;;;;;;44.17;21.83;;;10.80;52.60;;;;;;5056561;28;20040;-81
2021/03/05 10:05:50;;;;;;;42.17;20.50;;;10.90;52.40;;;;;;5056379;28;20462;-81
2021/03/05 10:08:19;;;;;;;42.38;20.40;;;10.90;52.20;;;;;;5056432;28;20021;-82
2021/03/05 10:11:14;;;;;;;44.15;20.67;;;11.00;52.10;;;;;;5056365;28;20021;-82
2021/03/05 10:13:46;;;;;;;41.40;19.33;;;11.00;52.30;;;;;;5055133;28;20137;-82
2021/03/05 10:16:19;;;;;;;40.30;19.45;;;10.90;51.60;;;;;;5056304;28;20025;-83
2021/03/05 10:18:48;;;;;;;45.97;21.42;;;10.80;51.60;;;;;;5055924;28;20025;-81
2021/03/05 10:21:16;;;;;;;39.17;19.65;;;10.80;51.80;;;;;;5055708;28;20111;-82
2021/03/05 10:23:42;;;;;;;41.45;19.33;;;10.70;51.90;;;;;;5054651;28;20037;-84
2021/03/05 10:26:23;;;;;;;33.80;18.55;;;10.70;51.90;;;;;;5056267;28;20417;-81
2021/03/05 10:29:06;;;;;;;49.17;20.35;;;10.60;51.80;;;;;;5056103;28;20021;-83
2021/03/05 10:31:48;;;;;;;40.47;19.25;;;10.60;51.90;;;;;;5056188;28;20130;-80
2021/03/05 10:34:20;;;;;;;47.67;23.55;;;10.60;51.80;;;;;;5055621;28;20096;-82
2021/03/05 10:36:47;;;;;;;43.10;18.15;;;10.50;51.80;;;;;;5055806;28;20017;-82
2021/03/05 10:39:12;;;;;;;35.83;19.42;;;10.40;51.90;;;;;;5055500;28;20032;-82
2021/03/05 10:41:38;;;;;;;42.15;18.63;;;10.40;52.00;;;;;;5055781;28;20021;-82
2021/03/05 10:44:04;;;;;;;38.13;19.50;;;10.50;52.10;;;;;;5055993;28;20017;-83
2021/03/05 10:46:30;;;;;;;42.03;19.48;;;10.50;52.10;;;;;;5055825;28;20021;-82
2021/03/05 10:48:55;;;;;;;38.42;18.38;;;10.60;52.10;;;;;;5055381;28;20031;-81
2021/03/05 10:51:21;;;;;;;38.70;19.25;;;10.70;52.00;;;;;;5055172;28;20027;-82
2021/03/05 10:53:47;;;;;;;38.58;18.10;;;10.70;51.90;;;;;;5055856;28;20459;-82
2021/03/05 10:56:15;;;;;;;33.90;18.88;;;10.70;51.80;;;;;;5054095;28;20025;-83
2021/03/05 10:58:41;;;;;;;35.88;18.80;;;10.70;51.70;;;;;;5055828;28;20044;-83
2021/03/05 11:01:06;;;;;;;39.55;19.48;;;10.70;51.60;;;;;;5055498;28;20021;-82
2021/03/05 11:03:32;;;;;;;44.03;20.27;;;10.80;51.60;;;;;;5055000;28;20039;-83
2021/03/05 11:05:58;;;;;;;37.53;19.90;;;10.70;51.50;;;;;;5055717;28;20028;-82
2021/03/05 11:08:23;;;;;;;40.13;17.38;;;10.70;51.60;;;;;;5055554;28;20417;-83
2021/03/05 11:10:49;;;;;;;33.67;18.75;;;10.60;51.50;;;;;;5055503;28;20461;-82
2021/03/05 11:13:15;;;;;;;37.85;18.80;;;10.60;51.60;;;;;;5055668;28;20045;-83
2021/03/05 11:15:40;;;;;;;34.75;17.88;;;10.50;51.60;;;;;;5055244;28;20040;-84
2021/03/05 11:18:06;;;;;;;37.47;18.75;;;10.40;51.70;;;;;;5055091;28;20431;-83
2021/03/05 11:20:32;;;;;;;35.25;17.65;;;10.30;51.80;;;;;;5054892;28;20032;-83
2021/03/05 11:22:58;;;;;;;35.55;18.45;;;10.30;51.80;;;;;;5048325;28;20060;-82
2021/03/05 11:25:25;;;;;;;39.08;18.63;;;10.20;52.00;;;;;;5043088;28;20013;-82
2021/03/05 11:27:50;;;;;;;39.28;17.88;;;10.20;52.10;;;;;;5040599;28;20035;-83
2021/03/05 11:30:17;;;;;;;39.22;18.55;;;10.20;52.10;;;;;;5039524;28;20025;-82
2021/03/05 11:32:42;;;;;;;38.65;18.60;;;10.20;52.10;;;;;;5043847;28;20025;-83
2021/03/05 11:35:09;;;;;;;44.47;21.15;;;10.20;52.00;;;;;;5041463;28;20120;-85
2021/03/05 11:37:34;;;;;;;46.58;20.63;;;10.20;52.00;;;;;;5041973;28;20018;-83
2021/03/05 11:40:00;;;;;;;42.80;21.00;;;10.20;52.00;;;;;;5045186;28;20013;-82
2021/03/05 11:42:26;;;;;;;44.63;19.63;;;10.20;52.10;;;;;;5041942;28;20463;-81
2021/03/05 11:44:51;;;;;;;51.30;25.67;;;10.10;52.10;;;;;;5040693;28;20014;-83
2021/03/05 11:47:17;;;;;;;50.53;27.27;;;10.00;52.10;;;;;;5033764;28;20455;-82
2021/03/05 11:49:44;;;;;;;45.67;23.23;;;10.00;52.40;;;;;;5034451;28;20061;-82
2021/03/05 11:52:09;;;;;;;47.05;22.35;;;9.90;52.50;;;;;;5041997;28;20025;-83
2021/03/05 11:54:35;;;;;;;40.38;20.95;;;9.90;52.50;;;;;;5053005;28;20021;-82
2021/03/05 11:57:01;;;;;;;42.05;20.70;;;9.90;52.60;;;;;;5054446;28;20017;-82
2021/03/05 11:59:26;;;;;;;44.05;20.85;;;9.90;52.60;;;;;;5053991;28;20048;-82
2021/03/05 12:01:52;;;;;;;35.88;17.92;;;9.90;52.70;;;;;;5052961;28;20037;-82
2021/03/05 12:04:18;;;;;;;43.42;20.48;;;9.90;52.70;;;;;;5051290;28;20064;-84
2021/03/05 12:06:43;;;;;;;38.67;19.35;;;9.90;52.70;;;;;;5053403;28;20035;-84
2021/03/05 12:09:09;;;;;;;42.97;20.10;;;9.90;52.70;;;;;;5054049;28;20048;-82
2021/03/05 12:11:36;;;;;;;41.05;19.73;;;9.90;52.70;;;;;;5054744;28;20024;-82
2021/03/05 12:14:02;;;;;;;39.15;19.52;;;10.00;52.70;;;;;;5062626;28;20418;-82
2021/03/05 12:16:27;;;;;;;45.83;21.20;;;10.10;52.90;;;;;;5061996;28;20012;-82
2021/03/05 12:18:53;;;;;;;42.00;20.42;;;10.10;52.60;;;;;;5062160;28;20074;-83
2021/03/05 12:21:19;;;;;;;43.40;21.40;;;10.20;52.60;;;;;;5058329;28;20396;-85
2021/03/05 12:23:45;;;;;;;42.60;20.35;;;10.20;52.60;;;;;;5062542;28;20103;-82
2021/03/05 12:26:11;;;;;;;41.92;20.77;;;10.20;52.50;;;;;;5063439;28;20036;-83
2021/03/05 12:28:36;;;;;;;44.67;23.23;;;10.30;52.50;;;;;;5058840;28;20017;-83
2021/03/05 12:31:02;;;;;;;46.35;22.23;;;10.30;52.30;;;;;;5063113;28;20362;-82
2021/03/05 12:33:28;;;;;;;40.03;20.13;;;10.30;52.30;;;;;;5062898;28;20405;-83
2021/03/05 12:35:54;;;;;;;47.58;21.85;;;10.30;52.20;;;;;;5060653;28;20103;-82
2021/03/05 12:38:19;;;;;;;43.35;19.77;;;10.30;52.20;;;;;;5061608;28;20017;-86
2021/03/05 12:40:45;;;;;;;48.00;21.23;;;10.30;52.10;;;;;;5061977;28;20020;-83
2021/03/05 12:43:11;;;;;;;38.25;19.90;;;10.30;52.20;;;;;;5063067;28;20028;-83
2021/03/05 12:45:37;;;;;;;43.67;20.38;;;10.30;52.20;;;;;;5058713;28;20451;-82